createdAt,value
2018-05-07T00:08:13.689Z,4.2
2018-05-07T00:28:25.439Z,3.6
2018-05-07T00:43:25.255Z,5
2018-05-07T00:58:30.700Z,4.8
2018-05-07T01:18:43.759Z,4.4
2018-05-07T01:48:45.123Z,3.5
2018-05-07T02:03:57.219Z,4
2018-05-07T02:23:57.366Z,3.5
2018-05-07T02:54:08.790Z,3.3
2018-05-07T03:09:08.804Z,4.1
2018-05-07T03:29:20.413Z,4.8
2018-05-07T04:19:35.296Z,3.5
2018-05-07T04:34:35.307Z,4.9
2018-05-07T04:49:35.775Z,4.8
2018-05-07T05:04:48.173Z,5.5
2018-05-07T05:24:48.068Z,3.8
2018-05-07T05:40:01.076Z,4
2018-05-07T05:54:59.715Z,3.7
2018-05-07T06:15:00.319Z,4
2018-05-07T06:30:11.410Z,4.2
2018-05-07T06:45:11.514Z,3.1
2018-05-07T07:00:12.020Z,3.5
2018-05-07T07:20:12.268Z,3.4
2018-05-07T07:50:24.391Z,3.3
2018-05-07T08:10:24.466Z,3.7
2018-05-07T08:25:32.398Z,2.4
2018-05-07T08:40:32.582Z,2.9
2018-05-07T08:55:32.746Z,2.9
2018-05-07T09:15:43.858Z,3.1
2018-05-07T09:30:44.786Z,2.7
2018-05-07T09:45:56.583Z,2.8
2018-05-07T10:05:56.742Z,3
2018-05-07T10:20:59.322Z,3.5
2018-05-07T10:35:59.393Z,3.5
2018-05-07T10:56:12.478Z,3.3
2018-05-07T11:26:11.657Z,3.3
2018-05-07T11:41:25.565Z,2.6
2018-05-07T12:51:36.571Z,2.4
2018-05-07T13:21:49.839Z,2.5
2018-05-07T13:57:02.196Z,2.5
2018-05-07T14:27:01.710Z,2.5
2018-05-07T14:47:13.216Z,2.2
2018-05-07T15:02:13.240Z,1.8
2018-05-07T15:17:13.361Z,1.6
2018-05-07T15:37:13.521Z,2.1
2018-05-07T15:52:25.235Z,2.3
2018-05-07T16:22:25.051Z,2
2018-05-07T17:12:40.921Z,2.1
2018-05-07T17:32:51.087Z,1.5
2018-05-07T17:47:50.443Z,2.3
2018-05-07T18:02:52.204Z,1.7
2018-05-07T20:18:33.073Z,4.6
2018-05-07T22:44:24.434Z,3.3
2018-05-07T22:59:25.712Z,2.8
2018-05-07T23:19:24.468Z,2.8
2018-05-07T23:34:24.662Z,2.8
2018-05-07T23:49:39.544Z,2.9
